IBB1GR LEGR-GCLP
Flight info
| Callsign | IBB1GR |
|---|---|
| Flight time | 2h 16m |
| Altitude | 37000 |
| Route | MAR1N MAR DCT OSNAL DCT NALES DCT DONIA DCT RUNAX UL82 IBALU DCT TERTO TERTO9Z |
| Aircraft | E190/M-SDGHIJ1RWY/LB1 |
Departure
| Time | 2026-04-22 11:47 |
|---|---|
| Airport | F.G.L. Airport Granada-Jaén Airport (LEGR) |
Arrival
| Time | 2026-04-22 14:04 |
|---|---|
| Airport | Gran Canaria Airport (GCLP) |
| Time | Latitude | Longitude | Altitude | Speed | Heading |
|---|---|---|---|---|---|
| 2026-04-22 11:02 | 37.18568 | -3.77684 | 1875 ft | 0 kts | 269° |
| 2026-04-22 11:38 | 37.18568 | -3.77686 | 1876 ft | 1 kts | 269° |
| 2026-04-22 11:39 | 37.18568 | -3.77711 | 1876 ft | 4 kts | 269° |
| 2026-04-22 11:39 | 37.18578 | -3.77754 | 1875 ft | 6 kts | 327° |
| 2026-04-22 11:39 | 37.18632 | -3.77762 | 1873 ft | 8 kts | 359° |
| 2026-04-22 11:39 | 37.18697 | -3.77756 | 1872 ft | 9 kts | 37° |
| 2026-04-22 11:40 | 37.18710 | -3.77675 | 1872 ft | 10 kts | 89° |
| 2026-04-22 11:40 | 37.18711 | -3.77586 | 1873 ft | 10 kts | 89° |
| 2026-04-22 11:40 | 37.18711 | -3.77484 | 1872 ft | 13 kts | 89° |
| 2026-04-22 11:40 | 37.18713 | -3.77366 | 1873 ft | 14 kts | 89° |
| 2026-04-22 11:41 | 37.18713 | -3.77237 | 1874 ft | 15 kts | 90° |
| 2026-04-22 11:41 | 37.18713 | -3.77103 | 1875 ft | 15 kts | 89° |
| 2026-04-22 11:41 | 37.18714 | -3.76955 | 1875 ft | 17 kts | 90° |
| 2026-04-22 11:41 | 37.18715 | -3.76798 | 1874 ft | 18 kts | 89° |
| 2026-04-22 11:42 | 37.18717 | -3.76644 | 1877 ft | 16 kts | 90° |
| 2026-04-22 11:42 | 37.18718 | -3.76500 | 1877 ft | 16 kts | 89° |
| 2026-04-22 11:42 | 37.18719 | -3.76362 | 1878 ft | 15 kts | 89° |
| 2026-04-22 11:42 | 37.18720 | -3.76229 | 1878 ft | 13 kts | 90° |
| 2026-04-22 11:43 | 37.18732 | -3.76154 | 1878 ft | 8 kts | 46° |
| 2026-04-22 11:43 | 37.18783 | -3.76138 | 1878 ft | 4 kts | 359° |
| 2026-04-22 11:43 | 37.18787 | -3.76138 | 1878 ft | 0 kts | 359° |
| 2026-04-22 11:45 | 37.18788 | -3.76138 | 1878 ft | 0 kts | 359° |
| 2026-04-22 11:46 | 37.18797 | -3.76138 | 1878 ft | 3 kts | 359° |
| 2026-04-22 11:46 | 37.18842 | -3.76139 | 1877 ft | 9 kts | 359° |
| 2026-04-22 11:46 | 37.18886 | -3.76191 | 1876 ft | 11 kts | 265° |
| 2026-04-22 11:46 | 37.18883 | -3.76547 | 1872 ft | 79 kts | 270° |
| 2026-04-22 11:47 | 37.18876 | -3.77542 | 1869 ft | 147 kts | 269° |
| 2026-04-22 11:47 | 37.18872 | -3.78971 | 2155 ft | 173 kts | 269° |
| 2026-04-22 11:47 | 37.18857 | -3.80488 | 2874 ft | 179 kts | 268° |
| 2026-04-22 11:47 | 37.18796 | -3.82053 | 3536 ft | 185 kts | 265° |
| 2026-04-22 11:48 | 37.18704 | -3.83676 | 4163 ft | 189 kts | 264° |
| 2026-04-22 11:48 | 37.18632 | -3.85381 | 4497 ft | 213 kts | 268° |
| 2026-04-22 11:48 | 37.18600 | -3.87395 | 4621 ft | 249 kts | 268° |
| 2026-04-22 11:48 | 37.18553 | -3.89701 | 4762 ft | 284 kts | 267° |
| 2026-04-22 11:49 | 37.18499 | -3.92154 | 5152 ft | 269 kts | 267° |
| 2026-04-22 11:49 | 37.18443 | -3.94500 | 5297 ft | 282 kts | 267° |
| 2026-04-22 11:49 | 37.18382 | -3.97017 | 5993 ft | 293 kts | 266° |
| 2026-04-22 11:49 | 37.18264 | -3.99547 | 6815 ft | 296 kts | 260° |
| 2026-04-22 11:50 | 37.17938 | -4.02085 | 7771 ft | 294 kts | 258° |
| 2026-04-22 11:50 | 37.17612 | -4.04574 | 8734 ft | 291 kts | 258° |
| 2026-04-22 11:50 | 37.17287 | -4.07040 | 9626 ft | 290 kts | 257° |
| 2026-04-22 11:50 | 37.16962 | -4.09511 | 10484 ft | 289 kts | 257° |
| 2026-04-22 11:51 | 37.16636 | -4.11984 | 11244 ft | 290 kts | 257° |
| 2026-04-22 11:51 | 37.16306 | -4.14477 | 11881 ft | 297 kts | 258° |
| 2026-04-22 11:51 | 37.15962 | -4.17071 | 12436 ft | 306 kts | 258° |
| 2026-04-22 11:51 | 37.15612 | -4.19714 | 13036 ft | 314 kts | 258° |
| 2026-04-22 11:52 | 37.15252 | -4.22435 | 13731 ft | 317 kts | 258° |
| 2026-04-22 11:52 | 37.14894 | -4.25117 | 14468 ft | 318 kts | 258° |
| 2026-04-22 11:52 | 37.14532 | -4.27843 | 15214 ft | 319 kts | 259° |
| 2026-04-22 11:52 | 37.14166 | -4.30587 | 15941 ft | 321 kts | 259° |
| 2026-04-22 11:53 | 37.13795 | -4.33354 | 16572 ft | 324 kts | 259° |
| 2026-04-22 11:53 | 37.13426 | -4.36111 | 17210 ft | 327 kts | 259° |
| 2026-04-22 11:53 | 37.13049 | -4.38925 | 17858 ft | 329 kts | 259° |
| 2026-04-22 11:53 | 37.12667 | -4.41765 | 18488 ft | 333 kts | 260° |
| 2026-04-22 11:54 | 37.12280 | -4.44640 | 19090 ft | 336 kts | 260° |
| 2026-04-22 11:54 | 37.11892 | -4.47515 | 19664 ft | 340 kts | 260° |
| 2026-04-22 11:54 | 37.11495 | -4.50452 | 20267 ft | 344 kts | 260° |
| 2026-04-22 11:54 | 37.11098 | -4.53377 | 20852 ft | 347 kts | 260° |
| 2026-04-22 11:55 | 37.10693 | -4.56363 | 21435 ft | 350 kts | 261° |
| 2026-04-22 11:55 | 37.10283 | -4.59382 | 22010 ft | 353 kts | 261° |
| 2026-04-22 11:55 | 37.09871 | -4.62409 | 22568 ft | 356 kts | 261° |
| 2026-04-22 11:55 | 37.09450 | -4.65491 | 23118 ft | 360 kts | 260° |
| 2026-04-22 11:56 | 37.09027 | -4.68582 | 23684 ft | 362 kts | 261° |
| 2026-04-22 11:56 | 37.08601 | -4.71691 | 24261 ft | 365 kts | 261° |
| 2026-04-22 11:56 | 37.08176 | -4.74778 | 24831 ft | 367 kts | 261° |
| 2026-04-22 11:56 | 37.07744 | -4.77923 | 25357 ft | 369 kts | 261° |
| 2026-04-22 11:57 | 37.07306 | -4.81095 | 25877 ft | 372 kts | 261° |
| 2026-04-22 11:57 | 37.06862 | -4.84313 | 26395 ft | 374 kts | 261° |
| 2026-04-22 11:57 | 37.06421 | -4.87496 | 26881 ft | 377 kts | 261° |
| 2026-04-22 11:57 | 37.05970 | -4.90748 | 27363 ft | 380 kts | 261° |
| 2026-04-22 11:58 | 37.05659 | -4.93989 | 27825 ft | 381 kts | 269° |
| 2026-04-22 11:58 | 37.05550 | -4.97324 | 28280 ft | 384 kts | 263° |
| 2026-04-22 11:58 | 37.04958 | -5.00572 | 28724 ft | 388 kts | 253° |
| 2026-04-22 11:58 | 37.04081 | -5.03785 | 29145 ft | 392 kts | 249° |
| 2026-04-22 11:59 | 37.02801 | -5.06788 | 29538 ft | 399 kts | 239° |
| 2026-04-22 11:59 | 37.01051 | -5.09494 | 29950 ft | 405 kts | 229° |
| 2026-04-22 11:59 | 36.98873 | -5.11815 | 30372 ft | 412 kts | 220° |
| 2026-04-22 11:59 | 36.96656 | -5.14080 | 30808 ft | 411 kts | 225° |
| 2026-04-22 12:00 | 36.94521 | -5.16520 | 31230 ft | 412 kts | 227° |
| 2026-04-22 12:00 | 36.92394 | -5.19035 | 31655 ft | 414 kts | 227° |
| 2026-04-22 12:00 | 36.90300 | -5.21537 | 32106 ft | 415 kts | 227° |
| 2026-04-22 12:00 | 36.88199 | -5.24056 | 32621 ft | 414 kts | 228° |
| 2026-04-22 12:01 | 36.86136 | -5.26530 | 33182 ft | 412 kts | 228° |
| 2026-04-22 12:01 | 36.84153 | -5.29085 | 33714 ft | 407 kts | 234° |
| 2026-04-22 12:01 | 36.82547 | -5.31992 | 34241 ft | 401 kts | 242° |
| 2026-04-22 12:01 | 36.81119 | -5.34933 | 34789 ft | 400 kts | 242° |
| 2026-04-22 12:02 | 36.79678 | -5.37887 | 35308 ft | 399 kts | 242° |
| 2026-04-22 12:02 | 36.78242 | -5.40824 | 35785 ft | 398 kts | 242° |
| 2026-04-22 12:02 | 36.76794 | -5.43781 | 36290 ft | 397 kts | 242° |
| 2026-04-22 12:02 | 36.75372 | -5.46683 | 36782 ft | 396 kts | 242° |
| 2026-04-22 12:03 | 36.73944 | -5.49592 | 36981 ft | 389 kts | 242° |
| 2026-04-22 12:03 | 36.72530 | -5.52475 | 37018 ft | 397 kts | 242° |
| 2026-04-22 12:03 | 36.69592 | -5.58451 | 37020 ft | 414 kts | 242° |
| 2026-04-22 12:04 | 36.66540 | -5.64647 | 37010 ft | 421 kts | 242° |
| 2026-04-22 12:04 | 36.63488 | -5.70830 | 37014 ft | 420 kts | 241° |
| 2026-04-22 12:05 | 36.60437 | -5.77002 | 37011 ft | 419 kts | 241° |
| 2026-04-22 12:05 | 36.57386 | -5.83164 | 37010 ft | 420 kts | 241° |
| 2026-04-22 12:06 | 36.54329 | -5.89325 | 37007 ft | 418 kts | 241° |
| 2026-04-22 12:06 | 36.51284 | -5.95450 | 37007 ft | 419 kts | 241° |
| 2026-04-22 12:07 | 36.47975 | -6.01461 | 37008 ft | 424 kts | 230° |
| 2026-04-22 12:07 | 36.43434 | -6.06233 | 37009 ft | 429 kts | 221° |
| 2026-04-22 12:08 | 36.38742 | -6.10712 | 37003 ft | 429 kts | 221° |
| 2026-04-22 12:08 | 36.34017 | -6.15226 | 37004 ft | 429 kts | 221° |
| 2026-04-22 12:09 | 36.29284 | -6.19741 | 37002 ft | 428 kts | 221° |
| 2026-04-22 12:09 | 36.24578 | -6.24223 | 37003 ft | 428 kts | 221° |
| 2026-04-22 12:10 | 36.19891 | -6.28681 | 37003 ft | 428 kts | 221° |
| 2026-04-22 12:10 | 36.15136 | -6.33196 | 37003 ft | 429 kts | 221° |
| 2026-04-22 12:11 | 36.10435 | -6.37653 | 37002 ft | 429 kts | 221° |
| 2026-04-22 12:11 | 36.05685 | -6.42150 | 36998 ft | 429 kts | 221° |
| 2026-04-22 12:12 | 36.00952 | -6.46623 | 36996 ft | 429 kts | 221° |
| 2026-04-22 12:12 | 35.96225 | -6.51084 | 36993 ft | 428 kts | 221° |
| 2026-04-22 12:13 | 35.91497 | -6.55538 | 36990 ft | 428 kts | 221° |
| 2026-04-22 12:13 | 35.86764 | -6.59991 | 36985 ft | 428 kts | 221° |
| 2026-04-22 12:14 | 35.82355 | -6.64765 | 36985 ft | 421 kts | 234° |
| 2026-04-22 12:14 | 35.78808 | -6.70448 | 36985 ft | 420 kts | 235° |
| 2026-04-22 12:15 | 35.75225 | -6.76177 | 36986 ft | 420 kts | 235° |
| 2026-04-22 12:15 | 35.71676 | -6.81837 | 36985 ft | 421 kts | 235° |
| 2026-04-22 12:16 | 35.68105 | -6.87523 | 36984 ft | 421 kts | 235° |
| 2026-04-22 12:16 | 35.64509 | -6.93238 | 36987 ft | 421 kts | 235° |
| 2026-04-22 12:17 | 35.60943 | -6.98899 | 36987 ft | 421 kts | 235° |
| 2026-04-22 12:17 | 35.57376 | -7.04549 | 36987 ft | 421 kts | 235° |
| 2026-04-22 12:18 | 35.53782 | -7.10234 | 36983 ft | 420 kts | 235° |
| 2026-04-22 12:18 | 35.50215 | -7.15868 | 36985 ft | 418 kts | 235° |
| 2026-04-22 12:19 | 35.46633 | -7.21515 | 36982 ft | 419 kts | 235° |
| 2026-04-22 12:19 | 35.43083 | -7.27102 | 36984 ft | 418 kts | 235° |
| 2026-04-22 12:20 | 35.39505 | -7.32727 | 36983 ft | 417 kts | 235° |
| 2026-04-22 12:20 | 35.35934 | -7.38329 | 36982 ft | 418 kts | 235° |
| 2026-04-22 12:21 | 35.32378 | -7.43899 | 36977 ft | 418 kts | 235° |
| 2026-04-22 12:21 | 35.28798 | -7.49498 | 36982 ft | 417 kts | 235° |
| 2026-04-22 12:22 | 35.25225 | -7.55078 | 36978 ft | 417 kts | 235° |
| 2026-04-22 12:22 | 35.21627 | -7.60687 | 36984 ft | 417 kts | 234° |
| 2026-04-22 12:23 | 35.18045 | -7.66263 | 36985 ft | 418 kts | 234° |
| 2026-04-22 12:23 | 35.14471 | -7.71817 | 36988 ft | 416 kts | 234° |
| 2026-04-22 12:24 | 35.10907 | -7.77346 | 36986 ft | 417 kts | 234° |
| 2026-04-22 12:24 | 35.07290 | -7.82948 | 36985 ft | 418 kts | 234° |
| 2026-04-22 12:25 | 35.03719 | -7.88472 | 36990 ft | 416 kts | 234° |
| 2026-04-22 12:25 | 35.00134 | -7.94009 | 36989 ft | 417 kts | 234° |
| 2026-04-22 12:26 | 34.96539 | -7.99550 | 36986 ft | 417 kts | 234° |
| 2026-04-22 12:26 | 34.92955 | -8.05068 | 36985 ft | 416 kts | 233° |
| 2026-04-22 12:27 | 34.89356 | -8.10600 | 36989 ft | 414 kts | 234° |
| 2026-04-22 12:27 | 34.85764 | -8.16112 | 36986 ft | 414 kts | 234° |
| 2026-04-22 12:28 | 34.82202 | -8.21569 | 36988 ft | 414 kts | 234° |
| 2026-04-22 12:28 | 34.78605 | -8.27071 | 36988 ft | 415 kts | 233° |
| 2026-04-22 12:29 | 34.75001 | -8.32575 | 36987 ft | 416 kts | 234° |
| 2026-04-22 12:29 | 34.71405 | -8.38059 | 36990 ft | 414 kts | 233° |
| 2026-04-22 12:30 | 34.66040 | -8.46225 | 36990 ft | 414 kts | 233° |
| 2026-04-22 12:31 | 34.62428 | -8.51712 | 36989 ft | 414 kts | 233° |
| 2026-04-22 12:31 | 34.58839 | -8.57156 | 36991 ft | 414 kts | 233° |
| 2026-04-22 12:32 | 34.55240 | -8.62607 | 36989 ft | 414 kts | 233° |
| 2026-04-22 12:32 | 34.49866 | -8.70730 | 36996 ft | 413 kts | 233° |
| 2026-04-22 12:33 | 34.46270 | -8.76154 | 36998 ft | 414 kts | 233° |
| 2026-04-22 12:33 | 34.42184 | -8.81070 | 37007 ft | 417 kts | 221° |
| 2026-04-22 12:34 | 34.37676 | -8.85425 | 36993 ft | 416 kts | 221° |
| 2026-04-22 12:34 | 34.33143 | -8.89785 | 36995 ft | 416 kts | 221° |
| 2026-04-22 12:35 | 34.28602 | -8.94145 | 36992 ft | 415 kts | 221° |
| 2026-04-22 12:35 | 34.24067 | -8.98493 | 36993 ft | 416 kts | 221° |
| 2026-04-22 12:36 | 34.19533 | -9.02834 | 36990 ft | 416 kts | 221° |
| 2026-04-22 12:36 | 34.15003 | -9.07165 | 36987 ft | 417 kts | 221° |
| 2026-04-22 12:37 | 34.10468 | -9.11494 | 36987 ft | 418 kts | 221° |
| 2026-04-22 12:37 | 34.05906 | -9.15843 | 36987 ft | 417 kts | 221° |
| 2026-04-22 12:38 | 34.01372 | -9.20160 | 36987 ft | 416 kts | 221° |
| 2026-04-22 12:38 | 33.96845 | -9.24464 | 36987 ft | 416 kts | 221° |
| 2026-04-22 12:39 | 33.90023 | -9.30938 | 36980 ft | 415 kts | 221° |
| 2026-04-22 12:40 | 33.85504 | -9.35219 | 36986 ft | 415 kts | 221° |
| 2026-04-22 12:40 | 33.80948 | -9.39529 | 36989 ft | 416 kts | 221° |
| 2026-04-22 12:41 | 33.76402 | -9.43824 | 36972 ft | 415 kts | 221° |
| 2026-04-22 12:41 | 33.71862 | -9.48107 | 36967 ft | 416 kts | 222° |
| 2026-04-22 12:42 | 33.67319 | -9.52387 | 36973 ft | 415 kts | 221° |
| 2026-04-22 12:42 | 33.62791 | -9.56647 | 36977 ft | 416 kts | 221° |
| 2026-04-22 12:43 | 33.58227 | -9.60935 | 36975 ft | 415 kts | 222° |
| 2026-04-22 12:43 | 33.53689 | -9.65193 | 36971 ft | 415 kts | 221° |
| 2026-04-22 12:44 | 33.49146 | -9.69450 | 36987 ft | 415 kts | 221° |
| 2026-04-22 12:44 | 33.44611 | -9.73694 | 36988 ft | 415 kts | 221° |
| 2026-04-22 12:45 | 33.40073 | -9.77933 | 36986 ft | 415 kts | 221° |
| 2026-04-22 12:45 | 33.35506 | -9.82195 | 36980 ft | 414 kts | 221° |
| 2026-04-22 12:46 | 33.30969 | -9.86422 | 36992 ft | 415 kts | 221° |
| 2026-04-22 12:46 | 33.26434 | -9.90643 | 36984 ft | 415 kts | 221° |
| 2026-04-22 12:47 | 33.21878 | -9.94876 | 36982 ft | 415 kts | 221° |
| 2026-04-22 12:47 | 33.17326 | -9.99101 | 36985 ft | 415 kts | 221° |
| 2026-04-22 12:48 | 33.12777 | -10.03318 | 36989 ft | 415 kts | 221° |
| 2026-04-22 12:48 | 33.08203 | -10.07550 | 36983 ft | 414 kts | 221° |
| 2026-04-22 12:49 | 33.03661 | -10.11749 | 36983 ft | 414 kts | 221° |
| 2026-04-22 12:49 | 32.99111 | -10.15949 | 36981 ft | 413 kts | 221° |
| 2026-04-22 12:50 | 32.94573 | -10.20132 | 36983 ft | 414 kts | 221° |
| 2026-04-22 12:50 | 32.90018 | -10.24326 | 36981 ft | 414 kts | 221° |
| 2026-04-22 12:51 | 32.85471 | -10.28507 | 36983 ft | 414 kts | 222° |
| 2026-04-22 12:51 | 32.80921 | -10.32684 | 36982 ft | 414 kts | 222° |
| 2026-04-22 12:52 | 32.76378 | -10.36849 | 36979 ft | 415 kts | 222° |
| 2026-04-22 12:52 | 32.71804 | -10.41038 | 36974 ft | 414 kts | 222° |
| 2026-04-22 12:53 | 32.67258 | -10.45195 | 36976 ft | 413 kts | 222° |
| 2026-04-22 12:53 | 32.62720 | -10.49339 | 36980 ft | 414 kts | 222° |
| 2026-04-22 12:54 | 32.58143 | -10.53515 | 36970 ft | 413 kts | 222° |
| 2026-04-22 12:54 | 32.53594 | -10.57658 | 36970 ft | 414 kts | 222° |
| 2026-04-22 12:55 | 32.49788 | -10.61121 | 36975 ft | 413 kts | 222° |
| 2026-04-22 12:55 | 32.44499 | -10.65927 | 36983 ft | 413 kts | 222° |
| 2026-04-22 12:56 | 32.39944 | -10.70060 | 36984 ft | 414 kts | 222° |
| 2026-04-22 12:56 | 32.35360 | -10.74213 | 36986 ft | 414 kts | 222° |
| 2026-04-22 12:57 | 32.30818 | -10.78323 | 36979 ft | 412 kts | 222° |
| 2026-04-22 12:57 | 32.26247 | -10.82454 | 36979 ft | 413 kts | 222° |
| 2026-04-22 12:58 | 32.21694 | -10.86565 | 36987 ft | 412 kts | 222° |
| 2026-04-22 12:58 | 32.17153 | -10.90658 | 36982 ft | 412 kts | 222° |
| 2026-04-22 12:59 | 32.12640 | -10.94721 | 36984 ft | 411 kts | 222° |
| 2026-04-22 12:59 | 32.08069 | -10.98831 | 36978 ft | 411 kts | 222° |
| 2026-04-22 13:00 | 32.03546 | -11.02892 | 36986 ft | 411 kts | 222° |
| 2026-04-22 13:00 | 31.98977 | -11.06990 | 36985 ft | 410 kts | 222° |
| 2026-04-22 13:01 | 31.94455 | -11.11040 | 36982 ft | 410 kts | 223° |
| 2026-04-22 13:01 | 31.89898 | -11.15117 | 36977 ft | 410 kts | 222° |
| 2026-04-22 13:02 | 31.85373 | -11.19160 | 36983 ft | 408 kts | 223° |
| 2026-04-22 13:02 | 31.80864 | -11.23183 | 36988 ft | 409 kts | 222° |
| 2026-04-22 13:03 | 31.76326 | -11.27227 | 36982 ft | 408 kts | 223° |
| 2026-04-22 13:03 | 31.71813 | -11.31243 | 36983 ft | 408 kts | 223° |
| 2026-04-22 13:04 | 31.67302 | -11.35253 | 36981 ft | 407 kts | 223° |
| 2026-04-22 13:04 | 31.62795 | -11.39255 | 36973 ft | 407 kts | 223° |
| 2026-04-22 13:05 | 31.58297 | -11.43244 | 36978 ft | 407 kts | 223° |
| 2026-04-22 13:05 | 31.53791 | -11.47235 | 36978 ft | 407 kts | 223° |
| 2026-04-22 13:06 | 31.49288 | -11.51217 | 36977 ft | 403 kts | 223° |
| 2026-04-22 13:06 | 31.44814 | -11.55170 | 36973 ft | 404 kts | 223° |
| 2026-04-22 13:07 | 31.40315 | -11.59139 | 36980 ft | 404 kts | 223° |
| 2026-04-22 13:07 | 31.35815 | -11.63105 | 36987 ft | 405 kts | 223° |
| 2026-04-22 13:08 | 31.31328 | -11.67054 | 36990 ft | 402 kts | 223° |
| 2026-04-22 13:08 | 31.26868 | -11.70976 | 36995 ft | 405 kts | 223° |
| 2026-04-22 13:09 | 31.22361 | -11.74932 | 36990 ft | 402 kts | 223° |
| 2026-04-22 13:09 | 31.17902 | -11.78843 | 36995 ft | 399 kts | 223° |
| 2026-04-22 13:10 | 31.13453 | -11.82741 | 36998 ft | 402 kts | 223° |
| 2026-04-22 13:10 | 31.08967 | -11.86664 | 36988 ft | 399 kts | 223° |
| 2026-04-22 13:11 | 31.04541 | -11.90532 | 36982 ft | 400 kts | 223° |
| 2026-04-22 13:11 | 31.00101 | -11.94407 | 36986 ft | 400 kts | 224° |
| 2026-04-22 13:12 | 30.95635 | -11.98301 | 36984 ft | 401 kts | 223° |
| 2026-04-22 13:12 | 30.91184 | -12.02176 | 36980 ft | 400 kts | 224° |
| 2026-04-22 13:13 | 30.86711 | -12.06066 | 36983 ft | 398 kts | 224° |
| 2026-04-22 13:13 | 30.82297 | -12.09899 | 36989 ft | 396 kts | 224° |
| 2026-04-22 13:14 | 30.77893 | -12.13722 | 36983 ft | 397 kts | 224° |
| 2026-04-22 13:14 | 30.73457 | -12.17564 | 36982 ft | 394 kts | 224° |
| 2026-04-22 13:15 | 30.69049 | -12.21381 | 36987 ft | 397 kts | 224° |
| 2026-04-22 13:15 | 30.64633 | -12.25198 | 36982 ft | 394 kts | 224° |
| 2026-04-22 13:16 | 30.60239 | -12.28993 | 36988 ft | 395 kts | 224° |
| 2026-04-22 13:16 | 30.55845 | -12.32783 | 36991 ft | 395 kts | 224° |
| 2026-04-22 13:17 | 30.51448 | -12.36571 | 36988 ft | 392 kts | 224° |
| 2026-04-22 13:17 | 30.47067 | -12.40342 | 36997 ft | 394 kts | 224° |
| 2026-04-22 13:18 | 30.42683 | -12.44109 | 36987 ft | 390 kts | 224° |
| 2026-04-22 13:18 | 30.38327 | -12.47849 | 36988 ft | 390 kts | 224° |
| 2026-04-22 13:19 | 30.33991 | -12.51569 | 36979 ft | 390 kts | 225° |
| 2026-04-22 13:19 | 30.29626 | -12.55307 | 36978 ft | 388 kts | 225° |
| 2026-04-22 13:20 | 30.25272 | -12.59033 | 36980 ft | 389 kts | 224° |
| 2026-04-22 13:20 | 30.20893 | -12.62777 | 36974 ft | 392 kts | 225° |
| 2026-04-22 13:21 | 30.16535 | -12.66497 | 36991 ft | 388 kts | 225° |
| 2026-04-22 13:21 | 30.12161 | -12.70227 | 36997 ft | 388 kts | 224° |
| 2026-04-22 13:22 | 30.07824 | -12.73931 | 36985 ft | 387 kts | 225° |
| 2026-04-22 13:22 | 30.03493 | -12.77633 | 36980 ft | 384 kts | 225° |
| 2026-04-22 13:23 | 29.99193 | -12.81306 | 36982 ft | 386 kts | 224° |
| 2026-04-22 13:23 | 29.94860 | -12.85002 | 36988 ft | 385 kts | 225° |
| 2026-04-22 13:24 | 29.90549 | -12.88675 | 36991 ft | 385 kts | 225° |
| 2026-04-22 13:24 | 29.86233 | -12.92349 | 36990 ft | 384 kts | 225° |
| 2026-04-22 13:25 | 29.81921 | -12.96013 | 36987 ft | 385 kts | 225° |
| 2026-04-22 13:25 | 29.77603 | -12.99681 | 36989 ft | 384 kts | 225° |
| 2026-04-22 13:26 | 29.73310 | -13.03322 | 36989 ft | 383 kts | 225° |
| 2026-04-22 13:26 | 29.69018 | -13.06958 | 36987 ft | 381 kts | 225° |
| 2026-04-22 13:27 | 29.64737 | -13.10582 | 36985 ft | 383 kts | 225° |
| 2026-04-22 13:27 | 29.60506 | -13.14160 | 36983 ft | 380 kts | 225° |
| 2026-04-22 13:28 | 29.56255 | -13.17750 | 36985 ft | 380 kts | 225° |
| 2026-04-22 13:28 | 29.51989 | -13.21350 | 36989 ft | 379 kts | 225° |
| 2026-04-22 13:29 | 29.47683 | -13.24980 | 36985 ft | 383 kts | 225° |
| 2026-04-22 13:29 | 29.43413 | -13.28573 | 36983 ft | 381 kts | 225° |
| 2026-04-22 13:30 | 29.39155 | -13.32155 | 36983 ft | 379 kts | 225° |
| 2026-04-22 13:30 | 29.34878 | -13.35747 | 36979 ft | 380 kts | 225° |
| 2026-04-22 13:31 | 29.30606 | -13.39333 | 36978 ft | 377 kts | 225° |
| 2026-04-22 13:31 | 29.26379 | -13.42876 | 36977 ft | 377 kts | 225° |
| 2026-04-22 13:32 | 29.22105 | -13.46457 | 36982 ft | 379 kts | 225° |
| 2026-04-22 13:32 | 29.17860 | -13.50009 | 36983 ft | 379 kts | 225° |
| 2026-04-22 13:33 | 29.13791 | -13.53811 | 36993 ft | 374 kts | 230° |
| 2026-04-22 13:33 | 29.09889 | -13.57697 | 36986 ft | 374 kts | 230° |
| 2026-04-22 13:34 | 29.05976 | -13.61567 | 36982 ft | 371 kts | 230° |
| 2026-04-22 13:34 | 29.02074 | -13.65421 | 36991 ft | 370 kts | 229° |
| 2026-04-22 13:35 | 28.98246 | -13.69193 | 37006 ft | 356 kts | 229° |
| 2026-04-22 13:35 | 28.94536 | -13.72851 | 36966 ft | 356 kts | 230° |
| 2026-04-22 13:35 | 28.92622 | -13.74737 | 36587 ft | 361 kts | 229° |
| 2026-04-22 13:36 | 28.90719 | -13.76609 | 36189 ft | 360 kts | 229° |
| 2026-04-22 13:36 | 28.88834 | -13.78463 | 35806 ft | 361 kts | 228° |
| 2026-04-22 13:36 | 28.86922 | -13.80342 | 35394 ft | 362 kts | 229° |
| 2026-04-22 13:36 | 28.85025 | -13.82207 | 34995 ft | 364 kts | 228° |
| 2026-04-22 13:37 | 28.83067 | -13.84130 | 34580 ft | 368 kts | 229° |
| 2026-04-22 13:37 | 28.81133 | -13.86029 | 34176 ft | 372 kts | 228° |
| 2026-04-22 13:37 | 28.79160 | -13.87964 | 33760 ft | 376 kts | 228° |
| 2026-04-22 13:37 | 28.77192 | -13.89894 | 33343 ft | 379 kts | 228° |
| 2026-04-22 13:38 | 28.75174 | -13.91872 | 32949 ft | 383 kts | 227° |
| 2026-04-22 13:38 | 28.71120 | -13.95841 | 32101 ft | 388 kts | 226° |
| 2026-04-22 13:38 | 28.69057 | -13.97860 | 31666 ft | 390 kts | 225° |
| 2026-04-22 13:39 | 28.66987 | -13.99885 | 31229 ft | 395 kts | 225° |
| 2026-04-22 13:39 | 28.64914 | -14.01911 | 30798 ft | 397 kts | 224° |
| 2026-04-22 13:39 | 28.62817 | -14.03959 | 30352 ft | 397 kts | 223° |
| 2026-04-22 13:39 | 28.60720 | -14.06006 | 29920 ft | 398 kts | 223° |
| 2026-04-22 13:40 | 28.58626 | -14.08049 | 29474 ft | 396 kts | 223° |
| 2026-04-22 13:40 | 28.56514 | -14.10109 | 29020 ft | 395 kts | 222° |
| 2026-04-22 13:40 | 28.54446 | -14.12124 | 28587 ft | 392 kts | 222° |
| 2026-04-22 13:40 | 28.52377 | -14.14139 | 28145 ft | 390 kts | 222° |
| 2026-04-22 13:41 | 28.50342 | -14.16120 | 27724 ft | 388 kts | 222° |
| 2026-04-22 13:41 | 28.48279 | -14.18129 | 27288 ft | 385 kts | 222° |
| 2026-04-22 13:41 | 28.46266 | -14.20086 | 26869 ft | 384 kts | 222° |
| 2026-04-22 13:41 | 28.44244 | -14.22052 | 26451 ft | 383 kts | 221° |
| 2026-04-22 13:42 | 28.42236 | -14.24004 | 26023 ft | 380 kts | 221° |
| 2026-04-22 13:42 | 28.40230 | -14.25951 | 25618 ft | 378 kts | 221° |
| 2026-04-22 13:42 | 28.38230 | -14.27891 | 25204 ft | 377 kts | 221° |
| 2026-04-22 13:42 | 28.36239 | -14.29822 | 24785 ft | 373 kts | 221° |
| 2026-04-22 13:43 | 28.34290 | -14.31711 | 24384 ft | 372 kts | 220° |
| 2026-04-22 13:43 | 28.32971 | -14.32989 | 24107 ft | 371 kts | 220° |
| 2026-04-22 13:43 | 28.30369 | -14.35509 | 23564 ft | 369 kts | 220° |
| 2026-04-22 13:43 | 28.28418 | -14.37397 | 23157 ft | 367 kts | 220° |
| 2026-04-22 13:44 | 28.26482 | -14.39269 | 22749 ft | 363 kts | 220° |
| 2026-04-22 13:44 | 28.24587 | -14.41101 | 22353 ft | 362 kts | 220° |
| 2026-04-22 13:44 | 28.22674 | -14.42949 | 21947 ft | 360 kts | 220° |
| 2026-04-22 13:44 | 28.20770 | -14.44789 | 21549 ft | 359 kts | 220° |
| 2026-04-22 13:45 | 28.18872 | -14.46620 | 21150 ft | 358 kts | 219° |
| 2026-04-22 13:45 | 28.16985 | -14.48441 | 20755 ft | 355 kts | 219° |
| 2026-04-22 13:45 | 28.15113 | -14.50247 | 20366 ft | 352 kts | 219° |
| 2026-04-22 13:45 | 28.13252 | -14.52041 | 19978 ft | 352 kts | 219° |
| 2026-04-22 13:46 | 28.11396 | -14.53829 | 19591 ft | 350 kts | 219° |
| 2026-04-22 13:46 | 28.09552 | -14.55605 | 19207 ft | 348 kts | 219° |
| 2026-04-22 13:46 | 28.07717 | -14.57372 | 18825 ft | 346 kts | 219° |
| 2026-04-22 13:46 | 28.05867 | -14.59152 | 18438 ft | 346 kts | 219° |
| 2026-04-22 13:47 | 28.04047 | -14.60902 | 18059 ft | 343 kts | 219° |
| 2026-04-22 13:47 | 28.02241 | -14.62638 | 17685 ft | 341 kts | 219° |
| 2026-04-22 13:47 | 28.00430 | -14.64378 | 17309 ft | 341 kts | 220° |
| 2026-04-22 13:47 | 27.98746 | -14.66270 | 16944 ft | 340 kts | 224° |
| 2026-04-22 13:48 | 27.97138 | -14.68174 | 16571 ft | 338 kts | 224° |
| 2026-04-22 13:48 | 27.95519 | -14.70089 | 16196 ft | 336 kts | 224° |
| 2026-04-22 13:48 | 27.93906 | -14.71996 | 15827 ft | 334 kts | 225° |
| 2026-04-22 13:48 | 27.92312 | -14.73881 | 15463 ft | 331 kts | 225° |
| 2026-04-22 13:49 | 27.90727 | -14.75754 | 15098 ft | 330 kts | 225° |
| 2026-04-22 13:49 | 27.89127 | -14.77643 | 14732 ft | 327 kts | 225° |
| 2026-04-22 13:49 | 27.87564 | -14.79489 | 14373 ft | 327 kts | 225° |
| 2026-04-22 13:49 | 27.85997 | -14.81337 | 14013 ft | 326 kts | 225° |
| 2026-04-22 13:50 | 27.84947 | -14.82575 | 13772 ft | 324 kts | 225° |
| 2026-04-22 13:50 | 27.82877 | -14.85015 | 13297 ft | 323 kts | 225° |
| 2026-04-22 13:50 | 27.81328 | -14.86841 | 12939 ft | 317 kts | 225° |
| 2026-04-22 13:50 | 27.79833 | -14.88602 | 12585 ft | 306 kts | 225° |
| 2026-04-22 13:51 | 27.78389 | -14.90303 | 12252 ft | 295 kts | 225° |
| 2026-04-22 13:51 | 27.76990 | -14.91948 | 11931 ft | 285 kts | 225° |
| 2026-04-22 13:51 | 27.75651 | -14.93524 | 11623 ft | 277 kts | 225° |
| 2026-04-22 13:51 | 27.74340 | -14.95066 | 11321 ft | 268 kts | 225° |
| 2026-04-22 13:52 | 27.73066 | -14.96562 | 11029 ft | 260 kts | 226° |
| 2026-04-22 13:52 | 27.71832 | -14.98013 | 10745 ft | 253 kts | 226° |
| 2026-04-22 13:52 | 27.70630 | -14.99425 | 10468 ft | 246 kts | 226° |
| 2026-04-22 13:52 | 27.69874 | -15.00386 | 10276 ft | 242 kts | 237° |
| 2026-04-22 13:53 | 27.69099 | -15.02037 | 10060 ft | 236 kts | 242° |
| 2026-04-22 13:53 | 27.68133 | -15.04241 | 9723 ft | 236 kts | 242° |
| 2026-04-22 13:53 | 27.67403 | -15.05909 | 9463 ft | 237 kts | 242° |
| 2026-04-22 13:53 | 27.66671 | -15.07586 | 9195 ft | 237 kts | 242° |
| 2026-04-22 13:54 | 27.65943 | -15.09252 | 8934 ft | 237 kts | 242° |
| 2026-04-22 13:54 | 27.65465 | -15.10346 | 8761 ft | 237 kts | 243° |
| 2026-04-22 13:54 | 27.64487 | -15.12585 | 8408 ft | 236 kts | 243° |
| 2026-04-22 13:54 | 27.63804 | -15.14238 | 8144 ft | 237 kts | 253° |
| 2026-04-22 13:55 | 27.63866 | -15.16081 | 7899 ft | 242 kts | 285° |
| 2026-04-22 13:55 | 27.64465 | -15.17872 | 7617 ft | 244 kts | 288° |
| 2026-04-22 13:55 | 27.65081 | -15.19648 | 7327 ft | 242 kts | 288° |
| 2026-04-22 13:55 | 27.65693 | -15.21405 | 7044 ft | 237 kts | 288° |
| 2026-04-22 13:56 | 27.66293 | -15.23119 | 6781 ft | 232 kts | 288° |
| 2026-04-22 13:56 | 27.66872 | -15.24775 | 6525 ft | 227 kts | 289° |
| 2026-04-22 13:56 | 27.67449 | -15.26424 | 6281 ft | 225 kts | 289° |
| 2026-04-22 13:56 | 27.68023 | -15.28064 | 6038 ft | 225 kts | 289° |
| 2026-04-22 13:57 | 27.68599 | -15.29711 | 5795 ft | 225 kts | 289° |
| 2026-04-22 13:57 | 27.69173 | -15.31353 | 5548 ft | 226 kts | 289° |
| 2026-04-22 13:57 | 27.69749 | -15.33000 | 5298 ft | 225 kts | 290° |
| 2026-04-22 13:57 | 27.70316 | -15.34619 | 5050 ft | 224 kts | 290° |
| 2026-04-22 13:58 | 27.70885 | -15.36250 | 4805 ft | 223 kts | 290° |
| 2026-04-22 13:58 | 27.71267 | -15.37342 | 4638 ft | 223 kts | 291° |
| 2026-04-22 13:58 | 27.72022 | -15.39507 | 4310 ft | 221 kts | 291° |
| 2026-04-22 13:58 | 27.72585 | -15.41120 | 4071 ft | 220 kts | 291° |
| 2026-04-22 13:59 | 27.73254 | -15.42664 | 3817 ft | 220 kts | 314° |
| 2026-04-22 13:59 | 27.74514 | -15.43594 | 3601 ft | 215 kts | 334° |
| 2026-04-22 13:59 | 27.75843 | -15.44310 | 3339 ft | 211 kts | 334° |
| 2026-04-22 13:59 | 27.77157 | -15.45004 | 3154 ft | 203 kts | 339° |
| 2026-04-22 14:00 | 27.78519 | -15.45031 | 2906 ft | 197 kts | 20° |
| 2026-04-22 14:00 | 27.79360 | -15.44671 | 2739 ft | 193 kts | 19° |
| 2026-04-22 14:00 | 27.81010 | -15.43982 | 2397 ft | 186 kts | 21° |
| 2026-04-22 14:00 | 27.82211 | -15.43462 | 2131 ft | 177 kts | 22° |
| 2026-04-22 14:01 | 27.83310 | -15.42983 | 1877 ft | 163 kts | 22° |
| 2026-04-22 14:01 | 27.84342 | -15.42532 | 1705 ft | 150 kts | 22° |
| 2026-04-22 14:01 | 27.85265 | -15.42127 | 1480 ft | 136 kts | 22° |
| 2026-04-22 14:01 | 27.86135 | -15.41746 | 1303 ft | 133 kts | 23° |
| 2026-04-22 14:02 | 27.86995 | -15.41371 | 1125 ft | 132 kts | 22° |
| 2026-04-22 14:02 | 27.87843 | -15.41009 | 965 ft | 131 kts | 20° |
| 2026-04-22 14:02 | 27.88710 | -15.40634 | 789 ft | 132 kts | 24° |
| 2026-04-22 14:02 | 27.89565 | -15.40238 | 617 ft | 133 kts | 24° |
| 2026-04-22 14:03 | 27.90435 | -15.39858 | 442 ft | 134 kts | 21° |
| 2026-04-22 14:03 | 27.91304 | -15.39487 | 270 ft | 133 kts | 21° |
| 2026-04-22 14:03 | 27.92171 | -15.39109 | 114 ft | 132 kts | 22° |
| 2026-04-22 14:03 | 27.92966 | -15.38756 | 82 ft | 109 kts | 21° |
| 2026-04-22 14:04 | 27.93575 | -15.38488 | 84 ft | 64 kts | 22° |
| 2026-04-22 14:04 | 27.93809 | -15.38411 | 85 ft | 26 kts | 1° |
| 2026-04-22 14:04 | 27.93951 | -15.38432 | 89 ft | 13 kts | 351° |
| 2026-04-22 14:04 | 27.94027 | -15.38457 | 92 ft | 9 kts | 296° |
| 2026-04-22 14:05 | 27.94013 | -15.38487 | 95 ft | 6 kts | 206° |
| 2026-04-22 14:05 | 27.93961 | -15.38510 | 96 ft | 6 kts | 201° |
| 2026-04-22 14:05 | 27.93861 | -15.38554 | 97 ft | 9 kts | 202° |
| 2026-04-22 14:06 | 27.93795 | -15.38583 | 98 ft | 9 kts | 201° |
| 2026-04-22 14:06 | 27.93761 | -15.38613 | 100 ft | 2 kts | 275° |
| 2026-04-22 14:06 | 27.93765 | -15.38626 | 101 ft | 3 kts | 294° |
| 2026-04-22 14:06 | 27.93776 | -15.38655 | 104 ft | 2 kts | 291° |
| 2026-04-22 14:07 | 27.93781 | -15.38669 | 105 ft | 1 kts | 291° |
| 2026-04-22 14:07 | 27.93783 | -15.38676 | 105 ft | 0 kts | 291° |